Warrenton, GA (30828)

10:31 PM EST on December 20, 2014 (GMT -0500)
Deerlick Astronomy Village | Change Station
CLOSE
Current Station
Personal Weather Station
Location: Sharon, GA
Elevation: 558 ft
Nearby Weather Stations

Elev 558 ft 33.56 °N, 82.76 °W | Updated 1 minute ago

Overcast
Overcast
46.5 °F
Feels Like 46 °F
N
1.0
Wind Variable Wind from NNE
Gusts 2.0 mph

Today
High -- | Low -- °F
--% Chance of Precip.
Yesterday
High -- | Low -- °F
Precip. -- in
7:30 AM 5:26 PM
Waning Crescent, 1% visible
Pressure 30.26 in
Visibility 1.5 miles
Clouds Overcast 200 ft
Windchill 46 °F
Dew Point 46 °F
Humidity 97%
Rainfall 0.05 in
Snow Depth Not available.
UV 0 out of 12
Pollen .40 out of 12
Air Quality Not available.
Flu Activity Not available.
METAR KHQU 210315Z AUTO 00000KT 1 1/2SM OVC002 10/10 A3026 RMK AO1 T00950095

More Conditions Fewer Conditions

Pressure 30.26 in
Visibility 1.5 miles
Clouds Overcast 200 ft
Windchill 46 °F
Dew Point 46 °F
Humidity 97%
Rainfall 0.05 in
Snow Depth Not available.
UV 0 out of 12
Pollen .40 out of 12
Air Quality Not available.
Flu Activity Not available.
METAR KHQU 210315Z AUTO 00000KT 1 1/2SM OVC002 10/10 A3026 RMK AO1 T00950095

More Conditions Fewer Conditions

10-Day Weather Forecast

Almanac

Astronomy

Dec. 20, 2014 Rise Set
Actual Time
Civil Twilight
Nautical Twilight
Astronomical Twilight
Moon
Length of Visible Light
Length of Day
Tomorrow will be .
, % of the Moon is Illuminated

Today's Extremes

State Highs State Lows

Community

WunderPhotos

Upload Photos

1,779,352 photos uploaded!

WunderBlogs® & News

Nearby

Air Quality

  Air Quality AQ Index Pollutant
Not available.

Snow Depth

Station Depth Elevation

Earthquake Activity

City Distance Mag. Time & Date
Minimum magnitude displayed is 2.5.

Coastal Water Temperatures

Place Temperature

Nearby Weather Stations